TimeCDT,TemperatureF,Dew PointF,Humidity,Sea Level PressureIn,VisibilityMPH,Wind Direction,Wind SpeedMPH,Gust SpeedMPH,PrecipitationIn,Events,Conditions,WindDirDegrees,DateUTC
12:56 AM,68.0,63.9,87,30.07,10.0,SSW,8.1,-,N/A,,Clear,210,2013-08-12 05:56:00
1:56 AM,68.0,61.9,81,30.05,10.0,SSW,6.9,-,N/A,,Clear,210,2013-08-12 06:56:00
2:56 AM,65.8,61.9,87,30.04,10.0,SSW,4.6,-,N/A,,Clear,200,2013-08-12 07:56:00
3:56 AM,64.9,61.9,90,30.03,10.0,SSW,5.8,-,N/A,,Clear,210,2013-08-12 08:56:00
4:56 AM,68.0,61.9,81,30.02,10.0,SW,4.6,-,N/A,,Clear,230,2013-08-12 09:56:00
5:56 AM,65.8,61.9,87,30.02,10.0,SSW,4.6,-,N/A,,Clear,200,2013-08-12 10:56:00
6:56 AM,64.9,61.9,90,30.02,10.0,SW,5.8,-,N/A,,Clear,230,2013-08-12 11:56:00
7:56 AM,70.9,63.0,76,30.00,10.0,SW,8.1,-,N/A,,Clear,220,2013-08-12 12:56:00
8:56 AM,73.9,63.9,71,29.99,10.0,SSW,11.5,-,N/A,,Clear,200,2013-08-12 13:56:00
9:56 AM,77.0,64.9,66,29.99,10.0,SSW,10.4,-,N/A,,Clear,210,2013-08-12 14:56:00
10:56 AM,79.0,64.9,62,30.00,10.0,SW,10.4,-,N/A,,Clear,230,2013-08-12 15:56:00
11:56 AM,79.9,66.9,64,29.99,10.0,SW,11.5,-,N/A,,Partly Cloudy,230,2013-08-12 16:56:00
12:56 PM,81.0,68.0,65,29.97,10.0,WSW,8.1,-,N/A,,Partly Cloudy,240,2013-08-12 17:56:00
1:56 PM,81.9,68.0,63,29.95,10.0,West,4.6,-,N/A,,Partly Cloudy,280,2013-08-12 18:56:00
2:56 PM,79.9,68.9,69,29.94,10.0,SW,8.1,-,N/A,,Scattered Clouds,230,2013-08-12 19:56:00
3:56 PM,79.9,68.9,69,29.93,10.0,West,9.2,-,N/A,,Scattered Clouds,270,2013-08-12 20:56:00
4:56 PM,79.9,68.9,69,29.90,10.0,WSW,8.1,-,N/A,,Partly Cloudy,240,2013-08-12 21:56:00
5:56 PM,79.9,70.9,74,29.90,10.0,NW,8.1,-,0.00,,Scattered Clouds,310,2013-08-12 22:56:00
6:56 PM,77.9,68.0,71,29.90,10.0,West,6.9,-,0.00,,Clear,270,2013-08-12 23:56:00
7:56 PM,73.9,68.0,82,29.90,10.0,WSW,6.9,-,N/A,,Partly Cloudy,250,2013-08-13 00:56:00
8:56 PM,72.9,66.9,82,29.92,10.0,West,5.8,-,N/A,,Overcast,270,2013-08-13 01:56:00
9:56 PM,70.9,66.9,87,29.93,10.0,West,8.1,-,N/A,,Clear,270,2013-08-13 02:56:00
10:56 PM,70.0,66.9,90,29.93,10.0,WNW,6.9,-,N/A,,Clear,290,2013-08-13 03:56:00
11:56 PM,68.9,65.8,90,29.93,10.0,NW,8.1,-,N/A,,Clear,310,2013-08-13 04:56:00